Time,TemperatureF,DewpointF,PressureIn,WindDirection,WindDirectionDegrees,WindSpeedMPH,WindSpeedGustMPH,Humidity,HourlyPrecipIn,Conditions,Clouds,dailyrainin,SolarRadiationWatts/m^2,SoftwareType,DateUTC
2013-07-19 00:01:00,68.7,67.5,29.86,WSW,250,0.0,0.0,96,0.00,RA,,0.00,0.0,WeatherDisplay:10.37,2013-07-19 04:01:00,
2013-07-19 00:03:00,68.7,67.5,29.86,WSW,250,0.0,0.0,96,0.00,RA,,0.00,0.0,WeatherDisplay:10.37,2013-07-19 04:03:00,
2013-07-19 00:05:00,68.7,67.5,29.86,WSW,250,0.0,0.0,96,0.00,RA,,0.00,0.0,WeatherDisplay:10.37,2013-07-19 04:05:00,
2013-07-19 00:08:00,68.6,67.4,29.86,WSW,250,0.0,0.0,96,0.00,RA,,0.00,0.0,WeatherDisplay:10.37,2013-07-19 04:08:00,
2013-07-19 00:13:00,68.6,67.4,29.86,WSW,250,0.0,0.0,96,0.00,,,0.00,0.0,WeatherDisplay:10.37,2013-07-19 04:13:00,
2013-07-19 00:18:00,68.5,67.3,29.86,WSW,250,0.0,0.0,96,0.00,,,0.00,0.0,WeatherDisplay:10.37,2013-07-19 04:18:00,
2013-07-19 00:23:00,68.5,67.3,29.86,WSW,250,0.0,0.0,96,0.00,,,0.00,0.0,WeatherDisplay:10.37,2013-07-19 04:23:00,
2013-07-19 00:28:00,68.5,67.3,29.86,WSW,250,0.0,0.0,96,0.00,,,0.00,0.0,WeatherDisplay:10.37,2013-07-19 04:28:00,
2013-07-19 00:33:00,68.4,67.2,29.86,WSW,250,0.0,0.0,96,0.00,,,0.00,0.0,WeatherDisplay:10.37,2013-07-19 04:33:00,
2013-07-19 00:38:00,68.5,67.3,29.86,WSW,250,0.0,0.0,96,0.00,,,0.00,0.0,WeatherDisplay:10.37,2013-07-19 04:38:00,
2013-07-19 00:43:00,68.5,67.3,29.86,WSW,250,1.2,0.0,96,0.00,,,0.00,0.0,WeatherDisplay:10.37,2013-07-19 04:43:00,
2013-07-19 00:48:00,68.6,67.7,29.86,WSW,250,0.0,0.0,97,0.00,,,0.00,0.0,WeatherDisplay:10.37,2013-07-19 04:48:00,
2013-07-19 00:53:00,68.8,67.9,29.86,WSW,250,3.5,3.5,97,0.00,,,0.00,0.0,WeatherDisplay:10.37,2013-07-19 04:53:00,
2013-07-19 00:58:00,69.7,68.8,29.85,West,264,3.0,3.0,97,0.00,,,0.00,0.0,WeatherDisplay:10.37,2013-07-19 04:58:00,
2013-07-19 01:03:00,70.3,69.4,29.85,West,264,1.2,1.2,97,0.00,,,0.00,0.0,WeatherDisplay:10.37,2013-07-19 05:03:00,
2013-07-19 01:08:00,70.4,69.5,29.85,West,264,0.0,0.0,97,0.00,,,0.00,0.0,WeatherDisplay:10.37,2013-07-19 05:08:00,
2013-07-19 01:13:00,70.6,69.7,29.85,West,264,3.0,3.0,97,0.00,,,0.00,0.0,WeatherDisplay:10.37,2013-07-19 05:13:00,
2013-07-19 01:18:00,70.8,69.9,29.85,West,264,2.3,2.3,97,0.00,,,0.00,0.0,WeatherDisplay:10.37,2013-07-19 05:18:00,
2013-07-19 01:23:00,71.1,69.9,29.85,WSW,254,6.9,6.9,96,0.00,,,0.00,0.0,WeatherDisplay:10.37,2013-07-19 05:23:00,
2013-07-19 01:28:00,71.5,70.0,29.85,WSW,244,4.0,4.0,95,0.00,,,0.00,0.0,WeatherDisplay:10.37,2013-07-19 05:28:00,
2013-07-19 01:33:00,71.9,70.1,29.85,West,271,4.6,4.6,94,0.00,,,0.00,0.0,WeatherDisplay:10.37,2013-07-19 05:33:00,
2013-07-19 01:38:00,72.2,70.1,29.84,West,274,3.5,3.5,93,0.00,,,0.00,0.0,WeatherDisplay:10.37,2013-07-19 05:38:00,
2013-07-19 01:43:00,72.4,69.9,29.84,West,277,6.9,6.9,92,0.00,,,0.00,0.0,WeatherDisplay:10.37,2013-07-19 05:43:00,
2013-07-19 01:48:00,72.7,69.9,29.84,WSW,257,4.0,4.0,91,0.00,,,0.00,0.0,WeatherDisplay:10.37,2013-07-19 05:48:00,
2013-07-19 01:53:00,73.1,70.3,29.84,WSW,250,8.1,8.1,91,0.00,,,0.00,0.0,WeatherDisplay:10.37,2013-07-19 05:53:00,
2013-07-19 01:58:00,73.5,70.4,29.84,West,263,4.6,4.6,90,0.00,,,0.00,0.0,WeatherDisplay:10.37,2013-07-19 05:58:00,
2013-07-19 02:03:00,73.8,70.7,29.84,WSW,255,5.8,5.8,90,0.00,,,0.00,0.0,WeatherDisplay:10.37,2013-07-19 06:03:00,
2013-07-19 02:08:00,74.0,70.9,29.84,WSW,252,3.5,3.5,90,0.00,,,0.00,0.0,WeatherDisplay:10.37,2013-07-19 06:08:00,
2013-07-19 02:13:00,74.2,70.7,29.84,West,267,4.6,4.6,89,0.00,,,0.00,0.0,WeatherDisplay:10.37,2013-07-19 06:13:00,
2013-07-19 02:18:00,74.4,70.9,29.84,WSW,240,5.0,5.0,89,0.00,,,0.00,0.0,WeatherDisplay:10.37,2013-07-19 06:18:00,
2013-07-19 02:23:00,74.5,71.0,29.84,West,262,5.0,5.0,89,0.00,,,0.00,0.0,WeatherDisplay:10.37,2013-07-19 06:23:00,
2013-07-19 02:28:00,74.5,70.7,29.84,West,269,4.6,4.6,88,0.00,,,0.00,0.0,WeatherDisplay:10.37,2013-07-19 06:28:00,
2013-07-19 02:33:00,74.6,70.8,29.84,WSW,238,3.5,3.5,88,0.00,,,0.00,0.0,WeatherDisplay:10.37,2013-07-19 06:33:00,
2013-07-19 02:38:00,74.6,70.5,29.84,WSW,254,5.8,5.8,87,0.00,,,0.00,0.0,WeatherDisplay:10.37,2013-07-19 06:38:00,
2013-07-19 02:43:00,74.6,70.5,29.84,West,260,5.8,5.8,87,0.00,,,0.00,0.0,WeatherDisplay:10.37,2013-07-19 06:43:00,
2013-07-19 02:48:00,74.6,70.5,29.83,West,269,4.6,4.6,87,0.00,,,0.00,0.0,WeatherDisplay:10.37,2013-07-19 06:48:00,
2013-07-19 02:53:00,74.6,70.5,29.83,WSW,254,6.0,6.0,87,0.00,,,0.00,0.0,WeatherDisplay:10.37,2013-07-19 06:53:00,
2013-07-19 02:58:00,74.5,70.4,29.83,West,266,5.0,5.0,87,0.00,,,0.00,0.0,WeatherDisplay:10.37,2013-07-19 06:58:00,
2013-07-19 03:03:00,74.4,69.9,29.83,West,264,7.0,7.0,86,0.00,,,0.00,0.0,WeatherDisplay:10.37,2013-07-19 07:03:00,
2013-07-19 03:08:00,74.5,70.0,29.83,WNW,290,8.0,8.0,86,0.00,,,0.00,0.0,WeatherDisplay:10.37,2013-07-19 07:08:00,
2013-07-19 03:13:00,74.6,69.8,29.83,WSW,256,8.1,8.1,85,0.00,,,0.00,0.0,WeatherDisplay:10.37,2013-07-19 07:13:00,
2013-07-19 03:18:00,74.6,69.8,29.83,SW,215,4.6,4.6,85,0.00,,,0.00,0.0,WeatherDisplay:10.37,2013-07-19 07:18:00,
2013-07-19 03:23:00,74.6,69.8,29.83,West,266,5.0,5.0,85,0.00,,,0.00,0.0,WeatherDisplay:10.37,2013-07-19 07:23:00,
2013-07-19 03:28:00,74.5,69.7,29.82,West,272,6.0,6.0,85,0.00,,,0.00,0.0,WeatherDisplay:10.37,2013-07-19 07:28:00,
2013-07-19 03:33:00,74.4,69.6,29.82,West,267,3.5,3.5,85,0.00,,,0.00,0.0,WeatherDisplay:10.37,2013-07-19 07:33:00,
2013-07-19 03:38:00,74.3,69.8,29.82,West,273,6.9,6.9,86,0.00,,,0.00,0.0,WeatherDisplay:10.37,2013-07-19 07:38:00,
2013-07-19 03:43:00,74.2,69.7,29.81,West,271,5.8,5.8,86,0.00,,,0.00,0.0,WeatherDisplay:10.37,2013-07-19 07:43:00,
2013-07-19 03:48:00,74.1,69.6,29.81,West,269,4.0,4.0,86,0.00,,,0.00,0.0,WeatherDisplay:10.37,2013-07-19 07:48:00,
2013-07-19 03:53:00,74.0,69.5,29.81,West,270,4.0,4.0,86,0.00,,,0.00,0.0,WeatherDisplay:10.37,2013-07-19 07:53:00,
2013-07-19 03:58:00,73.9,69.4,29.81,West,281,4.6,4.6,86,0.00,,,0.00,0.0,WeatherDisplay:10.37,2013-07-19 07:58:00,
2013-07-19 04:03:00,73.9,69.4,29.81,West,279,4.0,4.0,86,0.00,,,0.00,0.0,WeatherDisplay:10.37,2013-07-19 08:03:00,
2013-07-19 04:08:00,73.8,69.3,29.81,WNW,296,6.9,6.9,86,0.00,,,0.00,0.0,WeatherDisplay:10.37,2013-07-19 08:08:00,
2013-07-19 04:13:00,73.8,69.7,29.81,WNW,290,3.5,3.5,87,0.00,,,0.00,0.0,WeatherDisplay:10.37,2013-07-19 08:13:00,
2013-07-19 04:18:00,73.9,69.8,29.81,West,271,5.8,5.8,87,0.00,,,0.00,0.0,WeatherDisplay:10.37,2013-07-19 08:18:00,
2013-07-19 04:23:00,73.9,69.8,29.81,WSW,253,8.0,8.0,87,0.00,,,0.00,0.0,WeatherDisplay:10.37,2013-07-19 08:23:00,
2013-07-19 04:28:00,73.9,69.8,29.81,West,265,6.9,6.9,87,0.00,,,0.00,0.0,WeatherDisplay:10.37,2013-07-19 08:28:00,
2013-07-19 04:33:00,74.0,69.9,29.81,West,281,8.1,8.1,87,0.00,,,0.00,0.0,WeatherDisplay:10.37,2013-07-19 08:33:00,
2013-07-19 04:38:00,74.1,70.0,29.81,WNW,284,9.2,9.2,87,0.00,,,0.00,0.0,WeatherDisplay:10.37,2013-07-19 08:38:00,
2013-07-19 04:43:00,74.1,70.0,29.81,West,265,6.9,6.9,87,0.00,,,0.00,0.0,WeatherDisplay:10.37,2013-07-19 08:43:00,
2013-07-19 04:48:00,74.1,70.0,29.80,WSW,243,5.8,5.8,87,0.00,,,0.00,0.0,WeatherDisplay:10.37,2013-07-19 08:48:00,
2013-07-19 04:53:00,74.1,70.0,29.80,West,265,6.0,6.0,87,0.00,,,0.00,0.0,WeatherDisplay:10.37,2013-07-19 08:53:00,
2013-07-19 04:55:00,74.1,70.0,29.80,WSW,255,6.9,6.9,87,0.00,,,0.00,0.0,WeatherDisplay:10.37,2013-07-19 08:55:00,
2013-07-19 05:00:00,74.1,70.0,29.80,WSW,254,6.9,6.9,87,0.00,,,0.00,0.0,WeatherDisplay:10.37,2013-07-19 09:00:00,
2013-07-19 05:05:00,74.1,70.0,29.80,West,264,8.1,8.1,87,0.00,,,0.00,0.0,WeatherDisplay:10.37,2013-07-19 09:05:00,
2013-07-19 05:10:00,74.2,70.1,29.80,West,264,8.0,8.0,87,0.00,,,0.00,0.0,WeatherDisplay:10.37,2013-07-19 09:10:00,
2013-07-19 05:15:00,74.2,69.7,29.80,WNW,282,5.8,5.8,86,0.00,,,0.00,0.0,WeatherDisplay:10.37,2013-07-19 09:15:00,
2013-07-19 05:20:00,74.2,69.7,29.80,WSW,250,5.0,5.0,86,0.00,,,0.00,0.0,WeatherDisplay:10.37,2013-07-19 09:20:00,
2013-07-19 05:25:00,74.1,69.6,29.80,WSW,248,8.1,8.1,86,0.00,,,0.00,0.0,WeatherDisplay:10.37,2013-07-19 09:25:00,
2013-07-19 05:30:00,74.1,69.6,29.80,WSW,255,6.9,6.9,86,0.00,,,0.00,0.0,WeatherDisplay:10.37,2013-07-19 09:30:00,
2013-07-19 05:35:00,74.1,69.6,29.80,WNW,282,10.4,10.4,86,0.00,,,0.00,5.0,WeatherDisplay:10.37,2013-07-19 09:35:00,
2013-07-19 05:40:00,74.0,69.9,29.80,West,260,6.9,6.9,87,0.00,,,0.00,9.0,WeatherDisplay:10.37,2013-07-19 09:40:00,
2013-07-19 05:45:00,74.0,69.9,29.80,West,267,8.1,8.1,87,0.00,,,0.00,12.0,WeatherDisplay:10.37,2013-07-19 09:45:00,
2013-07-19 05:50:00,74.0,69.9,29.81,West,268,9.2,9.2,87,0.00,,,0.00,16.0,WeatherDisplay:10.37,2013-07-19 09:50:00,
2013-07-19 05:55:00,74.0,69.5,29.81,West,263,9.0,9.0,86,0.00,,,0.00,18.0,WeatherDisplay:10.37,2013-07-19 09:55:00,
2013-07-19 06:00:00,74.0,69.5,29.81,West,272,8.1,8.1,86,0.00,,,0.00,21.0,WeatherDisplay:10.37,2013-07-19 10:00:00,
2013-07-19 06:05:00,74.0,69.5,29.81,West,263,4.6,4.6,86,0.00,CLR,,0.00,26.0,WeatherDisplay:10.37,2013-07-19 10:05:00,
2013-07-19 06:10:00,74.0,69.5,29.81,WSW,257,9.2,9.2,86,0.00,CLR,,0.00,32.0,WeatherDisplay:10.37,2013-07-19 10:10:00,
2013-07-19 06:15:00,74.0,69.5,29.81,West,263,4.6,4.6,86,0.00,CLR,,0.00,37.0,WeatherDisplay:10.37,2013-07-19 10:15:00,
2013-07-19 06:20:00,74.0,69.5,29.80,West,263,6.0,6.0,86,0.00,CLR,,0.00,44.0,WeatherDisplay:10.37,2013-07-19 10:20:00,
2013-07-19 06:25:00,74.1,69.6,29.80,West,264,7.0,7.0,86,0.00,CLR,,0.00,51.0,WeatherDisplay:10.37,2013-07-19 10:25:00,
2013-07-19 06:30:00,74.2,70.1,29.80,West,275,5.0,5.0,87,0.00,CLR,,0.00,56.0,WeatherDisplay:10.37,2013-07-19 10:30:00,
2013-07-19 06:35:00,74.2,69.7,29.80,SW,232,9.2,9.2,86,0.00,CLR,,0.00,63.0,WeatherDisplay:10.37,2013-07-19 10:35:00,
2013-07-19 06:40:00,74.4,69.9,29.80,West,269,6.9,6.9,86,0.00,CLR,,0.00,70.0,WeatherDisplay:10.37,2013-07-19 10:40:00,
2013-07-19 06:45:00,74.5,70.0,29.80,West,273,8.1,8.1,86,0.00,CLR,,0.00,77.0,WeatherDisplay:10.37,2013-07-19 10:45:00,
2013-07-19 06:50:00,74.6,70.1,29.80,WSW,254,7.0,7.0,86,0.00,CLR,,0.00,88.0,WeatherDisplay:10.37,2013-07-19 10:50:00,
2013-07-19 06:55:00,74.6,70.1,29.79,West,277,7.0,7.0,86,0.00,CLR,,0.00,97.0,WeatherDisplay:10.37,2013-07-19 10:55:00,
2013-07-19 07:00:00,74.7,70.2,29.79,West,267,5.8,5.8,86,0.00,CLR,,0.00,102.0,WeatherDisplay:10.37,2013-07-19 11:00:00,
2013-07-19 07:05:00,74.8,70.3,29.79,West,271,9.2,9.2,86,0.00,OVC,,0.00,109.0,WeatherDisplay:10.37,2013-07-19 11:05:00,
2013-07-19 07:10:00,74.9,70.4,29.79,West,267,8.1,8.1,86,0.00,OVC,,0.00,116.0,WeatherDisplay:10.37,2013-07-19 11:10:00,
2013-07-19 07:15:00,75.0,70.5,29.79,WNW,288,5.0,5.0,86,0.00,OVC,,0.00,121.0,WeatherDisplay:10.37,2013-07-19 11:15:00,
2013-07-19 07:20:00,75.0,70.2,29.79,WSW,254,9.2,9.2,85,0.00,OVC,,0.00,128.0,WeatherDisplay:10.37,2013-07-19 11:20:00,
2013-07-19 07:25:00,75.2,70.4,29.79,WSW,258,5.8,5.8,85,0.00,OVC,,0.00,134.0,WeatherDisplay:10.37,2013-07-19 11:25:00,
2013-07-19 07:30:00,75.3,70.5,29.79,West,260,11.5,11.5,85,0.00,OVC,,0.00,137.0,WeatherDisplay:10.37,2013-07-19 11:30:00,
2013-07-19 07:35:00,75.5,70.7,29.79,West,267,10.4,10.4,85,0.00,OVC,,0.00,146.0,WeatherDisplay:10.37,2013-07-19 11:35:00,
2013-07-19 07:40:00,75.7,70.5,29.79,West,271,12.7,12.7,84,0.00,OVC,,0.00,144.0,WeatherDisplay:10.37,2013-07-19 11:40:00,
2013-07-19 07:45:00,75.9,70.7,29.79,WNW,285,9.2,9.2,84,0.00,OVC,,0.00,134.0,WeatherDisplay:10.37,2013-07-19 11:45:00,
2013-07-19 07:50:00,76.1,70.9,29.79,West,268,9.2,9.2,84,0.00,OVC,,0.00,139.0,WeatherDisplay:10.37,2013-07-19 11:50:00,
2013-07-19 07:55:00,76.3,70.8,29.79,West,265,11.5,11.5,83,0.00,OVC,,0.00,144.0,WeatherDisplay:10.37,2013-07-19 11:55:00,
2013-07-19 08:00:00,76.5,70.9,29.79,WSW,237,10.4,10.4,83,0.00,OVC,,0.00,285.0,WeatherDisplay:10.37,2013-07-19 12:00:00,
2013-07-19 08:05:00,76.9,71.0,29.79,WSW,244,9.2,9.2,82,0.00,OVC,,0.00,462.0,WeatherDisplay:10.37,2013-07-19 12:05:00,
2013-07-19 08:10:00,77.1,70.8,29.79,West,274,11.5,11.5,81,0.00,OVC,,0.00,360.0,WeatherDisplay:10.37,2013-07-19 12:10:00,
2013-07-19 08:15:00,77.3,71.0,29.79,West,262,10.4,10.4,81,0.00,OVC,,0.00,350.0,WeatherDisplay:10.37,2013-07-19 12:15:00,
2013-07-19 08:20:00,77.5,71.2,29.79,WSW,255,11.5,11.5,81,0.00,OVC,,0.00,336.0,WeatherDisplay:10.37,2013-07-19 12:20:00,
2013-07-19 08:25:00,77.6,70.9,29.79,West,259,18.4,18.4,80,0.00,OVC,,0.00,466.0,WeatherDisplay:10.37,2013-07-19 12:25:00,
2013-07-19 08:30:00,77.8,71.1,29.79,West,259,15.0,15.0,80,0.00,OVC,,0.00,461.0,WeatherDisplay:10.37,2013-07-19 12:30:00,
2013-07-19 08:35:00,78.0,71.3,29.79,SW,221,12.0,12.0,80,0.00,OVC,,0.00,385.0,WeatherDisplay:10.37,2013-07-19 12:35:00,
2013-07-19 08:40:00,78.2,71.2,29.79,WSW,250,11.5,11.5,79,0.00,OVC,,0.00,454.0,WeatherDisplay:10.37,2013-07-19 12:40:00,
2013-07-19 08:46:00,78.3,71.2,29.79,WSW,252,11.5,11.5,79,0.00,OVC,,0.00,478.0,WeatherDisplay:10.37,2013-07-19 12:46:00,
2013-07-19 08:51:00,78.5,71.4,29.79,WSW,240,11.5,11.5,79,0.00,OVC,,0.00,446.0,WeatherDisplay:10.37,2013-07-19 12:51:00,
2013-07-19 08:56:00,78.7,71.3,29.79,WSW,254,17.3,17.3,78,0.00,OVC,,0.00,367.0,WeatherDisplay:10.37,2013-07-19 12:56:00,
2013-07-19 09:01:00,78.7,71.3,29.79,WNW,290,6.0,6.0,78,0.00,OVC,,0.00,325.0,WeatherDisplay:10.37,2013-07-19 13:01:00,
2013-07-19 09:06:00,78.8,71.4,29.79,WSW,243,7.0,7.0,78,0.00,OVC,,0.00,548.0,WeatherDisplay:10.37,2013-07-19 13:06:00,
2013-07-19 09:11:00,79.0,71.2,29.79,West,276,8.1,8.1,77,0.00,OVC,,0.00,452.0,WeatherDisplay:10.37,2013-07-19 13:11:00,
2013-07-19 09:16:00,79.2,71.4,29.79,West,274,8.1,8.1,77,0.00,OVC,,0.00,436.0,WeatherDisplay:10.37,2013-07-19 13:16:00,
2013-07-19 09:21:00,79.3,71.1,29.79,WSW,254,12.7,12.7,76,0.00,OVC,,0.00,397.0,WeatherDisplay:10.37,2013-07-19 13:21:00,
2013-07-19 09:26:00,79.2,70.6,29.79,West,277,18.4,18.4,75,0.00,OVC,,0.00,338.0,WeatherDisplay:10.37,2013-07-19 13:26:00,
2013-07-19 09:27:00,79.1,70.9,29.79,WSW,242,18.4,18.4,76,0.00,OVC,,0.00,338.0,WeatherDisplay:10.37,2013-07-19 13:27:00,
2013-07-19 09:32:00,79.0,70.4,29.78,East,99,10.4,10.4,75,0.00,OVC,,0.00,388.0,WeatherDisplay:10.37,2013-07-19 13:32:00,
2013-07-19 09:37:00,78.9,70.7,29.78,West,271,9.2,9.2,76,0.00,OVC,,0.00,482.0,WeatherDisplay:10.37,2013-07-19 13:37:00,
2013-07-19 09:42:00,79.1,70.9,29.78,West,275,11.5,11.5,76,0.00,OVC,,0.00,531.0,WeatherDisplay:10.37,2013-07-19 13:42:00,
2013-07-19 09:47:00,79.5,70.9,29.78,West,263,12.7,12.7,75,0.00,OVC,,0.00,566.0,WeatherDisplay:10.37,2013-07-19 13:47:00,
2013-07-19 09:52:00,79.8,70.8,29.78,West,263,9.0,9.0,74,0.00,OVC,,0.00,631.0,WeatherDisplay:10.37,2013-07-19 13:52:00,
2013-07-19 09:57:00,80.1,71.5,29.78,West,261,12.0,12.0,75,0.00,OVC,,0.00,624.0,WeatherDisplay:10.37,2013-07-19 13:57:00,
2013-07-19 10:02:00,80.2,71.6,29.77,West,263,9.2,9.2,75,0.00,OVC,,0.00,564.0,WeatherDisplay:10.37,2013-07-19 14:02:00,
2013-07-19 10:07:00,80.4,71.7,29.77,West,269,11.5,11.5,75,0.00,OVC,,0.00,573.0,WeatherDisplay:10.37,2013-07-19 14:07:00,
2013-07-19 10:12:00,80.4,71.7,29.77,WSW,252,10.4,10.4,75,0.00,OVC,,0.00,578.0,WeatherDisplay:10.37,2013-07-19 14:12:00,
2013-07-19 10:17:00,80.5,72.2,29.77,West,261,15.0,15.0,76,0.00,OVC,,0.00,640.0,WeatherDisplay:10.37,2013-07-19 14:17:00,
2013-07-19 10:22:00,80.6,72.3,29.77,WNW,285,11.5,11.5,76,0.00,OVC,,0.00,629.0,WeatherDisplay:10.37,2013-07-19 14:22:00,
2013-07-19 10:27:00,81.0,72.7,29.77,West,265,7.0,7.0,76,0.00,OVC,,0.00,613.0,WeatherDisplay:10.37,2013-07-19 14:27:00,
2013-07-19 10:32:00,81.1,72.4,29.77,SSW,192,12.7,12.7,75,0.00,SCT,,0.00,731.0,WeatherDisplay:10.37,2013-07-19 14:32:00,
2013-07-19 10:37:00,81.3,73.4,29.77,West,281,13.0,13.0,77,0.00,CLR,,0.00,780.0,WeatherDisplay:10.37,2013-07-19 14:37:00,
2013-07-19 10:42:00,81.6,73.3,29.77,West,278,9.2,9.2,76,0.00,CLR,,0.00,1035.0,WeatherDisplay:10.37,2013-07-19 14:42:00,
2013-07-19 10:47:00,82.1,73.4,29.77,West,271,17.0,17.0,75,0.00,CLR,,0.00,1023.0,WeatherDisplay:10.37,2013-07-19 14:47:00,
2013-07-19 10:52:00,82.3,73.6,29.76,SE,145,12.7,12.7,75,0.00,CLR,,0.00,1042.0,WeatherDisplay:10.37,2013-07-19 14:52:00,
2013-07-19 10:57:00,82.2,73.5,29.76,West,276,12.7,12.7,75,0.00,CLR,,0.00,650.0,WeatherDisplay:10.37,2013-07-19 14:57:00,
2013-07-19 11:02:00,82.1,73.0,29.76,West,267,13.8,13.8,74,0.00,CLR,,0.00,833.0,WeatherDisplay:10.37,2013-07-19 15:02:00,
2013-07-19 11:07:00,82.3,73.6,29.76,West,280,6.9,6.9,75,0.00,CLR,,0.00,763.0,WeatherDisplay:10.37,2013-07-19 15:07:00,
2013-07-19 11:12:00,82.3,74.0,29.76,WSW,246,9.0,9.0,76,0.00,CLR,,0.00,847.0,WeatherDisplay:10.37,2013-07-19 15:12:00,
2013-07-19 11:17:00,82.2,73.5,29.76,WSW,257,12.7,12.7,75,0.00,CLR,,0.00,879.0,WeatherDisplay:10.37,2013-07-19 15:17:00,
2013-07-19 11:22:00,82.3,73.6,29.75,WSW,240,11.5,11.5,75,0.00,CLR,,0.00,838.0,WeatherDisplay:10.37,2013-07-19 15:22:00,
2013-07-19 11:27:00,82.3,72.8,29.76,West,277,17.3,17.3,73,0.00,CLR,,0.00,765.0,WeatherDisplay:10.37,2013-07-19 15:27:00,
2013-07-19 11:32:00,82.4,73.7,29.75,SW,217,9.2,9.2,75,0.00,CLR,,0.00,789.0,WeatherDisplay:10.37,2013-07-19 15:32:00,
2013-07-19 11:37:00,82.6,73.5,29.75,West,265,13.0,13.0,74,0.00,CLR,,0.00,851.0,WeatherDisplay:10.37,2013-07-19 15:37:00,
2013-07-19 11:42:00,82.7,74.0,29.75,WSW,238,7.0,7.0,75,0.00,CLR,,0.00,918.0,WeatherDisplay:10.37,2013-07-19 15:42:00,
2013-07-19 11:47:00,83.0,74.3,29.75,WSW,257,12.7,12.7,75,0.00,CLR,,0.00,960.0,WeatherDisplay:10.37,2013-07-19 15:47:00,
2013-07-19 11:52:00,83.0,73.9,29.74,WSW,246,11.5,11.5,74,0.00,CLR,,0.00,320.0,WeatherDisplay:10.37,2013-07-19 15:52:00,
2013-07-19 11:57:00,83.2,73.6,29.74,ESE,112,10.4,10.4,73,0.00,CLR,,0.00,269.0,WeatherDisplay:10.37,2013-07-19 15:57:00,
2013-07-19 12:02:00,83.1,73.9,29.74,West,263,11.5,11.5,74,0.00,CLR,,0.00,1013.0,WeatherDisplay:10.37,2013-07-19 16:02:00,
2013-07-19 12:07:00,83.3,73.7,29.74,WNW,294,13.0,13.0,73,0.00,CLR,,0.00,967.0,WeatherDisplay:10.37,2013-07-19 16:07:00,
2013-07-19 12:12:00,83.5,74.3,29.74,WSW,243,14.0,14.0,74,0.00,CLR,,0.00,1099.0,WeatherDisplay:10.37,2013-07-19 16:12:00,
2013-07-19 12:17:00,83.8,73.8,29.74,WSW,238,10.4,10.4,72,0.00,CLR,,0.00,1067.0,WeatherDisplay:10.37,2013-07-19 16:17:00,
2013-07-19 12:22:00,83.8,73.4,29.74,West,263,15.0,15.0,71,0.00,CLR,,0.00,318.0,WeatherDisplay:10.37,2013-07-19 16:22:00,
2013-07-19 12:27:00,83.5,73.9,29.74,West,277,11.0,11.0,73,0.00,CLR,,0.00,1021.0,WeatherDisplay:10.37,2013-07-19 16:27:00,
2013-07-19 12:32:00,83.5,73.5,29.74,WSW,241,15.0,15.0,72,0.00,CLR,,0.00,1041.0,WeatherDisplay:10.37,2013-07-19 16:32:00,
2013-07-19 12:37:00,83.6,73.2,29.74,SW,236,17.3,17.3,71,0.00,CLR,,0.00,1023.0,WeatherDisplay:10.37,2013-07-19 16:37:00,
2013-07-19 12:42:00,83.5,73.1,29.74,West,263,18.4,18.4,71,0.00,CLR,,0.00,995.0,WeatherDisplay:10.37,2013-07-19 16:42:00,
2013-07-19 12:47:00,83.6,73.6,29.73,WSW,240,11.5,11.5,72,0.00,CLR,,0.00,1023.0,WeatherDisplay:10.37,2013-07-19 16:47:00,
2013-07-19 12:52:00,84.0,74.4,29.74,SW,235,18.0,18.0,73,0.00,CLR,,0.00,1000.0,WeatherDisplay:10.37,2013-07-19 16:52:00,
2013-07-19 12:57:00,84.3,75.1,29.73,West,267,9.0,9.0,74,0.00,CLR,,0.00,373.0,WeatherDisplay:10.37,2013-07-19 16:57:00,
2013-07-19 13:02:00,84.6,74.2,29.73,WNW,286,15.0,15.0,71,0.00,CLR,,0.00,984.0,WeatherDisplay:10.37,2013-07-19 17:02:00,
2013-07-19 13:07:00,84.6,74.6,29.72,SE,141,11.5,11.5,72,0.00,CLR,,0.00,1051.0,WeatherDisplay:10.37,2013-07-19 17:07:00,
2013-07-19 13:12:00,84.6,74.2,29.72,West,269,6.9,6.9,71,0.00,CLR,,0.00,1051.0,WeatherDisplay:10.37,2013-07-19 17:12:00,
2013-07-19 13:17:00,84.7,73.8,29.72,West,265,15.0,15.0,70,0.00,CLR,,0.00,1005.0,WeatherDisplay:10.37,2013-07-19 17:17:00,
2013-07-19 13:22:00,84.9,73.6,29.72,ESE,115,9.2,9.2,69,0.00,CLR,,0.00,998.0,WeatherDisplay:10.37,2013-07-19 17:22:00,
2013-07-19 13:27:00,84.9,74.0,29.72,West,268,12.7,12.7,70,0.00,CLR,,0.00,967.0,WeatherDisplay:10.37,2013-07-19 17:27:00,
2013-07-19 13:32:00,85.1,73.3,29.71,WSW,240,13.8,13.8,68,0.00,CLR,,0.00,947.0,WeatherDisplay:10.37,2013-07-19 17:32:00,
2013-07-19 13:37:00,85.1,72.9,29.71,West,270,22.0,22.0,67,0.00,CLR,,0.00,967.0,WeatherDisplay:10.37,2013-07-19 17:37:00,
2013-07-19 13:42:00,85.2,73.4,29.71,West,270,11.5,11.5,68,0.00,CLR,,0.00,965.0,WeatherDisplay:10.37,2013-07-19 17:42:00,
2013-07-19 13:47:00,85.5,73.7,29.71,WSW,252,14.0,14.0,68,0.00,CLR,,0.00,1005.0,WeatherDisplay:10.37,2013-07-19 17:47:00,
2013-07-19 13:52:00,85.7,74.4,29.70,WSW,247,11.5,11.5,69,0.00,CLR,,0.00,925.0,WeatherDisplay:10.37,2013-07-19 17:52:00,
2013-07-19 13:57:00,85.9,73.7,29.70,WSW,242,13.0,13.0,67,0.00,CLR,,0.00,918.0,WeatherDisplay:10.37,2013-07-19 17:57:00,
2013-07-19 14:02:00,85.9,73.2,29.69,WSW,250,12.7,12.7,66,0.00,CLR,,0.00,914.0,WeatherDisplay:10.37,2013-07-19 18:02:00,
2013-07-19 14:07:00,86.0,73.3,29.69,WSW,243,11.0,11.0,66,0.00,CLR,,0.00,904.0,WeatherDisplay:10.37,2013-07-19 18:07:00,
2013-07-19 14:12:00,86.1,73.4,29.69,West,274,13.8,13.8,66,0.00,CLR,,0.00,902.0,WeatherDisplay:10.37,2013-07-19 18:12:00,
2013-07-19 14:17:00,86.3,73.1,29.69,WSW,251,16.0,16.0,65,0.00,CLR,,0.00,907.0,WeatherDisplay:10.37,2013-07-19 18:17:00,
2013-07-19 14:22:00,86.6,73.0,29.69,SW,236,9.2,9.2,64,0.00,CLR,,0.00,893.0,WeatherDisplay:10.37,2013-07-19 18:22:00,
2013-07-19 14:27:00,87.0,73.3,29.69,West,261,13.8,13.8,64,0.00,CLR,,0.00,900.0,WeatherDisplay:10.37,2013-07-19 18:27:00,
2013-07-19 14:32:00,87.0,72.9,29.68,SW,229,15.0,15.0,63,0.00,CLR,,0.00,884.0,WeatherDisplay:10.37,2013-07-19 18:32:00,
2013-07-19 14:37:00,86.9,72.8,29.68,WSW,250,11.5,11.5,63,0.00,CLR,,0.00,888.0,WeatherDisplay:10.37,2013-07-19 18:37:00,
2013-07-19 14:42:00,87.0,72.9,29.68,West,265,9.0,9.0,63,0.00,CLR,,0.00,861.0,WeatherDisplay:10.37,2013-07-19 18:42:00,
2013-07-19 14:47:00,87.2,73.1,29.67,WSW,246,12.7,12.7,63,0.00,CLR,,0.00,895.0,WeatherDisplay:10.37,2013-07-19 18:47:00,
2013-07-19 14:52:00,87.3,73.6,29.67,West,267,13.8,13.8,64,0.00,CLR,,0.00,831.0,WeatherDisplay:10.37,2013-07-19 18:52:00,
2013-07-19 14:57:00,87.2,72.1,29.67,West,259,9.2,9.2,61,0.00,CLR,,0.00,840.0,WeatherDisplay:10.37,2013-07-19 18:57:00,
2013-07-19 15:02:00,87.4,73.3,29.67,West,275,12.7,12.7,63,0.00,CLR,,0.00,833.0,WeatherDisplay:10.37,2013-07-19 19:02:00,
2013-07-19 15:07:00,87.4,72.3,29.67,WSW,248,10.4,10.4,61,0.00,CLR,,0.00,842.0,WeatherDisplay:10.37,2013-07-19 19:07:00,
2013-07-19 15:12:00,87.7,72.6,29.66,West,264,15.0,15.0,61,0.00,CLR,,0.00,805.0,WeatherDisplay:10.37,2013-07-19 19:12:00,
2013-07-19 15:17:00,87.7,72.1,29.66,WSW,248,18.0,18.0,60,0.00,CLR,,0.00,798.0,WeatherDisplay:10.37,2013-07-19 19:17:00,
2013-07-19 15:22:00,87.7,71.6,29.66,WNW,290,12.7,12.7,59,0.00,CLR,,0.00,773.0,WeatherDisplay:10.37,2013-07-19 19:22:00,
2013-07-19 15:27:00,87.5,72.4,29.66,West,265,16.1,16.1,61,0.00,CLR,,0.00,788.0,WeatherDisplay:10.37,2013-07-19 19:27:00,
2013-07-19 15:32:00,87.2,71.6,29.66,West,279,11.5,11.5,60,0.00,FEW,,0.00,214.0,WeatherDisplay:10.37,2013-07-19 19:32:00,
2013-07-19 15:37:00,87.0,71.9,29.66,West,259,21.0,21.0,61,0.00,SCT,,0.00,199.0,WeatherDisplay:10.37,2013-07-19 19:37:00,
2013-07-19 15:42:00,86.8,71.7,29.66,WSW,250,11.5,11.5,61,0.00,BKN,,0.00,805.0,WeatherDisplay:10.37,2013-07-19 19:42:00,
2013-07-19 15:47:00,87.0,71.4,29.66,WSW,237,11.5,11.5,60,0.00,SCT,,0.00,754.0,WeatherDisplay:10.37,2013-07-19 19:47:00,
2013-07-19 15:52:00,87.1,72.0,29.66,West,263,12.0,12.0,61,0.00,FEW,,0.00,742.0,WeatherDisplay:10.37,2013-07-19 19:52:00,
2013-07-19 15:57:00,87.0,72.9,29.66,West,262,11.0,11.0,63,0.00,FEW,,0.00,738.0,WeatherDisplay:10.37,2013-07-19 19:57:00,
2013-07-19 16:02:00,87.0,71.9,29.65,SSW,196,11.5,11.5,61,0.00,FEW,,0.00,724.0,WeatherDisplay:10.37,2013-07-19 20:02:00,
2013-07-19 16:08:00,86.8,70.8,29.65,NW,306,18.4,18.4,59,0.00,SCT,,0.00,668.0,WeatherDisplay:10.37,2013-07-19 20:08:00,
2013-07-19 16:13:00,86.7,70.7,29.64,WSW,250,19.6,19.6,59,0.00,BKN,,0.00,689.0,WeatherDisplay:10.37,2013-07-19 20:13:00,
2013-07-19 16:18:00,86.9,70.8,29.65,SW,229,11.5,11.5,59,0.00,BKN,,0.00,668.0,WeatherDisplay:10.37,2013-07-19 20:18:00,
2013-07-19 16:23:00,87.0,71.4,29.64,WSW,253,26.5,26.5,60,0.00,SCT,,0.00,638.0,WeatherDisplay:10.37,2013-07-19 20:23:00,
2013-07-19 16:28:00,86.8,70.8,29.64,SSW,203,15.0,15.0,59,0.00,SCT,,0.00,250.0,WeatherDisplay:10.37,2013-07-19 20:28:00,
2013-07-19 16:33:00,86.6,70.6,29.64,WSW,239,19.6,19.6,59,0.00,SCT,,0.00,624.0,WeatherDisplay:10.37,2013-07-19 20:33:00,
2013-07-19 16:38:00,86.7,70.7,29.64,West,267,13.8,13.8,59,0.00,SCT,,0.00,555.0,WeatherDisplay:10.37,2013-07-19 20:38:00,
2013-07-19 16:43:00,86.8,71.2,29.64,West,259,10.0,10.0,60,0.00,SCT,,0.00,585.0,WeatherDisplay:10.37,2013-07-19 20:43:00,
2013-07-19 16:48:00,86.8,70.2,29.64,NW,304,15.0,15.0,58,0.00,SCT,,0.00,573.0,WeatherDisplay:10.37,2013-07-19 20:48:00,
2013-07-19 16:53:00,86.6,70.1,29.64,West,260,19.6,19.6,58,0.00,BKN,,0.00,132.0,WeatherDisplay:10.37,2013-07-19 20:53:00,
2013-07-19 16:58:00,86.4,70.9,29.64,SSW,198,17.0,17.0,60,0.00,BKN,,0.00,520.0,WeatherDisplay:10.37,2013-07-19 20:58:00,
2013-07-19 17:03:00,86.4,70.9,29.64,WNW,288,13.8,13.8,60,0.00,BKN,,0.00,424.0,WeatherDisplay:10.37,2013-07-19 21:03:00,
2013-07-19 17:08:00,86.3,70.8,29.63,South,174,13.8,13.8,60,0.00,BKN,,0.00,411.0,WeatherDisplay:10.37,2013-07-19 21:08:00,
2013-07-19 17:13:00,86.2,71.2,29.63,West,269,11.5,11.5,61,0.00,BKN,,0.00,218.0,WeatherDisplay:10.37,2013-07-19 21:13:00,
2013-07-19 17:18:00,86.2,71.2,29.63,West,277,11.5,11.5,61,0.00,BKN,,0.00,206.0,WeatherDisplay:10.37,2013-07-19 21:18:00,
2013-07-19 17:23:00,86.2,71.2,29.63,West,281,12.7,12.7,61,0.00,BKN,,0.00,213.0,WeatherDisplay:10.37,2013-07-19 21:23:00,
2013-07-19 17:28:00,86.1,71.1,29.63,SW,231,19.0,19.0,61,0.00,BKN,,0.00,221.0,WeatherDisplay:10.37,2013-07-19 21:28:00,
2013-07-19 17:33:00,86.0,71.0,29.63,WNW,286,11.0,11.0,61,0.00,BKN,,0.00,418.0,WeatherDisplay:10.37,2013-07-19 21:33:00,
2013-07-19 17:38:00,86.1,71.6,29.64,West,268,9.2,9.2,62,0.00,BKN,,0.00,111.0,WeatherDisplay:10.37,2013-07-19 21:38:00,
2013-07-19 17:43:00,86.0,71.0,29.64,West,275,10.4,10.4,61,0.00,BKN,,0.00,237.0,WeatherDisplay:10.37,2013-07-19 21:43:00,
2013-07-19 17:48:00,85.9,70.9,29.63,WSW,240,16.1,16.1,61,0.00,BKN,,0.00,171.0,WeatherDisplay:10.37,2013-07-19 21:48:00,
2013-07-19 17:53:00,85.8,70.8,29.63,West,278,15.0,15.0,61,0.00,BKN,,0.00,220.0,WeatherDisplay:10.37,2013-07-19 21:53:00,
2013-07-19 17:58:00,85.7,70.7,29.63,West,271,15.0,15.0,61,0.00,BKN,,0.00,100.0,WeatherDisplay:10.37,2013-07-19 21:58:00,
2013-07-19 18:01:00,68.4,66.0,29.62,West,269,2.0,37.0,92,0.00,RA,,0.00,0.0,WeatherDisplay:10.37,2013-07-19 22:01:00,
2013-07-19 18:02:00,68.4,66.0,29.62,West,269,2.0,0.0,92,0.01,RA,,0.00,0.0,WeatherDisplay:10.37,2013-07-19 22:02:00,
2013-07-19 18:03:00,85.7,70.7,29.63,West,266,15.0,15.0,61,0.00,BKN,,0.00,127.0,WeatherDisplay:10.37,2013-07-19 22:03:00,
2013-07-19 18:08:00,85.7,71.7,29.63,WNW,288,13.0,13.0,63,0.00,BKN,,0.00,142.0,WeatherDisplay:10.37,2013-07-19 22:08:00,
2013-07-19 18:13:00,85.7,71.2,29.63,West,261,13.8,13.8,62,0.00,BKN,,0.00,86.0,WeatherDisplay:10.37,2013-07-19 22:13:00,
2013-07-19 18:18:00,85.6,71.1,29.63,West,263,13.8,13.8,62,0.00,BKN,,0.00,144.0,WeatherDisplay:10.37,2013-07-19 22:18:00,
2013-07-19 18:23:00,85.6,70.6,29.64,SW,215,13.8,13.8,61,0.00,BKN,,0.00,204.0,WeatherDisplay:10.37,2013-07-19 22:23:00,
2013-07-19 18:28:00,85.5,70.5,29.64,WSW,255,15.0,15.0,61,0.00,BKN,,0.00,257.0,WeatherDisplay:10.37,2013-07-19 22:28:00,
2013-07-19 18:33:00,85.4,70.9,29.64,West,268,15.0,15.0,62,0.00,BKN,,0.00,243.0,WeatherDisplay:10.37,2013-07-19 22:33:00,
2013-07-19 18:38:00,85.3,71.3,29.63,WSW,256,11.5,11.5,63,0.00,BKN,,0.00,225.0,WeatherDisplay:10.37,2013-07-19 22:38:00,
2013-07-19 18:43:00,85.3,70.8,29.64,West,280,11.5,11.5,62,0.00,BKN,,0.00,171.0,WeatherDisplay:10.37,2013-07-19 22:43:00,
2013-07-19 18:48:00,85.2,71.2,29.64,West,264,11.5,11.5,63,0.00,BKN,,0.00,200.0,WeatherDisplay:10.37,2013-07-19 22:48:00,
2013-07-19 18:53:00,85.1,70.6,29.64,West,261,15.0,15.0,62,0.00,BKN,,0.00,197.0,WeatherDisplay:10.37,2013-07-19 22:53:00,
2013-07-19 18:58:00,85.0,70.5,29.64,WSW,242,7.0,7.0,62,0.00,BKN,,0.00,178.0,WeatherDisplay:10.37,2013-07-19 22:58:00,
2013-07-19 19:03:00,85.0,71.0,29.64,West,269,13.8,13.8,63,0.00,BKN,,0.00,165.0,WeatherDisplay:10.37,2013-07-19 23:03:00,
2013-07-19 19:08:00,84.9,71.4,29.63,West,275,9.2,9.2,64,0.00,BKN,,0.00,144.0,WeatherDisplay:10.37,2013-07-19 23:08:00,
2013-07-19 19:13:00,84.7,70.7,29.63,WSW,253,12.7,12.7,63,0.00,BKN,,0.00,132.0,WeatherDisplay:10.37,2013-07-19 23:13:00,
2013-07-19 19:18:00,84.6,71.1,29.64,West,263,6.9,6.9,64,0.00,BKN,,0.00,109.0,WeatherDisplay:10.37,2013-07-19 23:18:00,
2013-07-19 19:23:00,84.4,70.9,29.64,West,272,12.7,12.7,64,0.00,BKN,,0.00,102.0,WeatherDisplay:10.37,2013-07-19 23:23:00,
2013-07-19 19:28:00,84.2,70.7,29.64,West,270,10.4,10.4,64,0.00,BKN,,0.00,93.0,WeatherDisplay:10.37,2013-07-19 23:28:00,
2013-07-19 19:33:00,84.0,71.0,29.64,WSW,252,9.2,9.2,65,0.00,BKN,,0.00,76.0,WeatherDisplay:10.37,2013-07-19 23:33:00,
2013-07-19 19:38:00,83.7,70.7,29.64,West,267,15.0,15.0,65,0.00,,,0.00,58.0,WeatherDisplay:10.37,2013-07-19 23:38:00,
2013-07-19 19:43:00,83.5,70.5,29.64,West,265,11.5,11.5,65,0.00,,,0.00,28.0,WeatherDisplay:10.37,2013-07-19 23:43:00,
2013-07-19 19:48:00,83.2,70.7,29.64,West,273,10.4,10.4,66,0.00,,,0.00,19.0,WeatherDisplay:10.37,2013-07-19 23:48:00,
2013-07-19 19:53:00,83.0,70.9,29.64,South,187,6.0,6.0,67,0.00,,,0.00,9.0,WeatherDisplay:10.37,2013-07-19 23:53:00,
2013-07-19 19:58:00,82.7,70.6,29.64,West,269,8.0,8.0,67,0.00,,,0.00,7.0,WeatherDisplay:10.37,2013-07-19 23:58:00,
2013-07-19 20:03:00,82.6,70.5,29.64,West,273,9.2,9.2,67,0.00,,,0.00,5.0,WeatherDisplay:10.37,2013-07-20 00:03:00,
2013-07-19 20:08:00,82.3,70.2,29.64,West,277,6.9,6.9,67,0.00,,,0.00,5.0,WeatherDisplay:10.37,2013-07-20 00:08:00,
2013-07-19 20:13:00,82.2,70.1,29.64,WSW,242,8.1,8.1,67,0.00,,,0.00,0.0,WeatherDisplay:10.37,2013-07-20 00:13:00,
2013-07-19 20:18:00,82.1,70.5,29.64,SW,236,4.6,4.6,68,0.00,,,0.00,0.0,WeatherDisplay:10.37,2013-07-20 00:18:00,
2013-07-19 20:23:00,81.9,70.3,29.64,West,263,5.8,5.8,68,0.00,,,0.00,0.0,WeatherDisplay:10.37,2013-07-20 00:23:00,
2013-07-19 20:28:00,81.8,70.2,29.64,West,272,10.4,10.4,68,0.00,,,0.00,0.0,WeatherDisplay:10.37,2013-07-20 00:28:00,
2013-07-19 20:33:00,81.7,70.1,29.64,West,264,9.0,9.0,68,0.00,,,0.00,0.0,WeatherDisplay:10.37,2013-07-20 00:33:00,
2013-07-19 20:38:00,81.6,70.4,29.64,WSW,255,10.0,10.0,69,0.00,,,0.00,0.0,WeatherDisplay:10.37,2013-07-20 00:38:00,
2013-07-19 20:43:00,81.6,70.4,29.64,West,269,6.9,6.9,69,0.00,,,0.00,0.0,WeatherDisplay:10.37,2013-07-20 00:43:00,
2013-07-19 20:49:00,81.6,70.4,29.64,WSW,248,5.8,5.8,69,0.00,,,0.00,0.0,WeatherDisplay:10.37,2013-07-20 00:49:00,
2013-07-19 20:54:00,81.6,70.0,29.64,WSW,257,4.6,4.6,68,0.00,,,0.00,0.0,WeatherDisplay:10.37,2013-07-20 00:54:00,
2013-07-19 20:59:00,81.6,70.4,29.64,West,267,5.8,5.8,69,0.00,,,0.00,0.0,WeatherDisplay:10.37,2013-07-20 00:59:00,
2013-07-19 21:04:00,81.6,70.4,29.64,West,259,5.8,5.8,69,0.00,,,0.00,0.0,WeatherDisplay:10.37,2013-07-20 01:04:00,
2013-07-19 21:09:00,81.6,70.4,29.64,WSW,244,9.2,9.2,69,0.00,,,0.00,0.0,WeatherDisplay:10.37,2013-07-20 01:09:00,
2013-07-19 21:14:00,81.6,70.4,29.64,West,263,4.0,4.0,69,0.00,,,0.00,0.0,WeatherDisplay:10.37,2013-07-20 01:14:00,
2013-07-19 21:19:00,81.5,70.3,29.64,West,264,5.0,5.0,69,0.00,,,0.00,0.0,WeatherDisplay:10.37,2013-07-20 01:19:00,
2013-07-19 21:24:00,81.5,70.3,29.64,WSW,257,11.5,11.5,69,0.00,,,0.00,0.0,WeatherDisplay:10.37,2013-07-20 01:24:00,
2013-07-19 21:29:00,81.5,70.3,29.64,WSW,252,6.9,6.9,69,0.00,,,0.00,0.0,WeatherDisplay:10.37,2013-07-20 01:29:00,
2013-07-19 21:34:00,81.5,69.9,29.64,WSW,257,7.0,7.0,68,0.00,,,0.00,0.0,WeatherDisplay:10.37,2013-07-20 01:34:00,
2013-07-19 21:39:00,81.6,70.0,29.64,West,261,9.2,9.2,68,0.00,,,0.00,0.0,WeatherDisplay:10.37,2013-07-20 01:39:00,
2013-07-19 21:44:00,81.6,70.4,29.64,SW,234,6.9,6.9,69,0.00,,,0.00,0.0,WeatherDisplay:10.37,2013-07-20 01:44:00,
2013-07-19 21:49:00,81.6,70.0,29.64,West,263,8.1,8.1,68,0.00,,,0.00,0.0,WeatherDisplay:10.37,2013-07-20 01:49:00,
2013-07-19 21:54:00,81.8,70.2,29.64,West,259,9.2,9.2,68,0.00,,,0.00,0.0,WeatherDisplay:10.37,2013-07-20 01:54:00,
2013-07-19 21:59:00,81.7,70.1,29.64,SW,234,8.1,8.1,68,0.00,,,0.00,0.0,WeatherDisplay:10.37,2013-07-20 01:59:00,
2013-07-19 22:04:00,81.8,70.2,29.64,West,267,11.5,11.5,68,0.00,,,0.00,0.0,WeatherDisplay:10.37,2013-07-20 02:04:00,
2013-07-19 22:09:00,81.8,70.2,29.64,West,264,16.1,16.1,68,0.00,,,0.00,0.0,WeatherDisplay:10.37,2013-07-20 02:09:00,
2013-07-19 22:14:00,81.9,70.3,29.64,WNW,294,11.5,11.5,68,0.00,,,0.00,0.0,WeatherDisplay:10.37,2013-07-20 02:14:00,
2013-07-19 22:19:00,82.0,70.0,29.64,West,260,12.7,12.7,67,0.00,,,0.00,0.0,WeatherDisplay:10.37,2013-07-20 02:19:00,
2013-07-19 22:24:00,82.0,70.0,29.64,West,268,11.5,11.5,67,0.00,,,0.00,0.0,WeatherDisplay:10.37,2013-07-20 02:24:00,
2013-07-19 22:29:00,82.1,70.5,29.66,West,271,12.0,12.0,68,0.00,,,0.00,0.0,WeatherDisplay:10.37,2013-07-20 02:29:00,
2013-07-19 22:34:00,80.8,68.8,29.66,West,278,11.5,11.5,67,0.00,,,0.00,0.0,WeatherDisplay:10.37,2013-07-20 02:34:00,
2013-07-19 22:39:00,79.1,68.9,29.67,WNW,296,4.6,4.6,71,0.01,RA,,0.01,0.0,WeatherDisplay:10.37,2013-07-20 02:39:00,
2013-07-19 22:44:00,77.5,68.9,29.67,West,277,3.5,3.5,75,0.01,RA,,0.01,0.0,WeatherDisplay:10.37,2013-07-20 02:44:00,
2013-07-19 22:49:00,76.6,69.2,29.67,West,277,3.5,3.5,78,0.01,,,0.01,0.0,WeatherDisplay:10.37,2013-07-20 02:49:00,
2013-07-19 22:54:00,75.7,69.1,29.68,WSW,258,3.5,3.5,80,0.01,,,0.01,0.0,WeatherDisplay:10.37,2013-07-20 02:54:00,
2013-07-19 22:59:00,74.7,69.2,29.71,West,263,10.4,10.4,83,0.03,RA,,0.05,0.0,WeatherDisplay:10.37,2013-07-20 02:59:00,
2013-07-19 23:04:00,72.5,67.4,29.74,West,267,36.8,36.8,84,0.30,RA,,0.36,0.0,WeatherDisplay:10.37,2013-07-20 03:04:00,
2013-07-19 23:15:00,70.1,67.7,29.71,West,277,37.0,37.0,92,0.59,RA,,0.59,0.0,WeatherDisplay:10.37,2013-07-20 03:15:00,
2013-07-19 23:20:00,69.9,67.8,29.69,West,260,11.5,11.5,93,0.61,RA,,0.61,0.0,WeatherDisplay:10.37,2013-07-20 03:20:00,
2013-07-19 23:25:00,69.8,67.7,29.69,WNW,283,6.0,6.0,93,0.62,RA,,0.62,0.0,WeatherDisplay:10.37,2013-07-20 03:25:00,
2013-07-19 23:30:00,69.7,67.6,29.67,WNW,284,3.5,3.5,93,0.62,RA,,0.63,0.0,WeatherDisplay:10.37,2013-07-20 03:30:00,
2013-07-19 23:35:00,69.4,67.3,29.67,WSW,246,3.5,3.5,93,0.64,RA,,0.64,0.0,WeatherDisplay:10.37,2013-07-20 03:35:00,
2013-07-19 23:40:00,69.3,67.2,29.66,West,277,5.8,5.8,93,0.64,RA,,0.65,0.0,WeatherDisplay:10.37,2013-07-20 03:40:00,
2013-07-19 23:45:00,69.0,66.6,29.65,WNW,284,3.5,3.5,92,0.65,RA,,0.65,0.0,WeatherDisplay:10.37,2013-07-20 03:45:00,
2013-07-19 23:50:00,68.8,66.4,29.63,SSW,209,2.0,2.0,92,0.65,RA,,0.65,0.0,WeatherDisplay:10.37,2013-07-20 03:50:00,
2013-07-19 23:55:00,68.6,66.2,29.63,WSW,255,2.3,2.3,92,0.66,RA,,0.66,0.0,WeatherDisplay:10.37,2013-07-20 03:55:00,